CheckWX is a tool to help pilots better visualize weather data.  It is not intended as a substitute for an official pre-flight weather briefing.

00:43:06 UTC

PKWA TAF
Bucholz AAF(Kwajalein Kmr)(Atoll) Airport
Kwajalein, Marshall Islands
PKWA 252321Z 2600/2624 07018KT P6SM SCT025

Mar-26@
00:00 UTC

Mar-26 @ 00:00 UTC

Mar-27@
00:00 UTC

Mar-27 @ 00:00 UTC

PKWA 252321Z 2600/2624 07018KT P6SM SCT025
Wind
  • 070° at 18 KTS
Cloud Levels
  • Scattered at 2,500' AGL